sensor_id;sensor_type;location;lat;lon;timestamp;P1;durP1;ratioP1;P2;durP2;ratioP2
82876;SDS011;72655;47.596;7.658;2023-09-30T06:16:11;17.65;;;5.95;;
82876;SDS011;72655;47.596;7.658;2023-09-30T06:18:38;17.73;;;5.85;;
82876;SDS011;72655;47.596;7.658;2023-09-30T06:21:05;18.92;;;5.90;;
82876;SDS011;72655;47.596;7.658;2023-09-30T06:23:35;17.27;;;5.60;;
82876;SDS011;72655;47.596;7.658;2023-09-30T06:26:02;16.15;;;6.28;;
82876;SDS011;72655;47.596;7.658;2023-09-30T06:28:29;20.48;;;6.38;;
82876;SDS011;72655;47.596;7.658;2023-09-30T06:30:57;20.67;;;6.75;;
82876;SDS011;72655;47.596;7.658;2023-09-30T06:33:26;15.27;;;6.03;;
82876;SDS011;72655;47.596;7.658;2023-09-30T06:35:54;15.93;;;6.38;;
82876;SDS011;72655;47.596;7.658;2023-09-30T06:38:21;18.83;;;7.18;;
82876;SDS011;72655;47.596;7.658;2023-09-30T06:40:48;27.05;;;8.75;;
82876;SDS011;72655;47.596;7.658;2023-09-30T06:43:15;23.52;;;8.80;;
82876;SDS011;72655;47.596;7.658;2023-09-30T06:45:43;19.58;;;6.25;;
82876;SDS011;72655;47.596;7.658;2023-09-30T06:48:12;21.98;;;6.30;;
82876;SDS011;72655;47.596;7.658;2023-09-30T06:50:43;13.18;;;5.18;;
82876;SDS011;72655;47.596;7.658;2023-09-30T06:53:11;12.68;;;5.20;;
82876;SDS011;72655;47.596;7.658;2023-09-30T06:55:38;16.67;;;6.18;;
82876;SDS011;72655;47.596;7.658;2023-09-30T06:58:05;18.15;;;6.30;;
82876;SDS011;72655;47.596;7.658;2023-09-30T07:00:35;20.05;;;6.88;;
82876;SDS011;72655;47.596;7.658;2023-09-30T07:03:03;17.30;;;5.90;;
82876;SDS011;72655;47.596;7.658;2023-09-30T07:05:30;17.80;;;6.07;;
82876;SDS011;72655;47.596;7.658;2023-09-30T07:07:59;14.98;;;6.28;;
82876;SDS011;72655;47.596;7.658;2023-09-30T07:10:26;17.05;;;6.35;;
82876;SDS011;72655;47.596;7.658;2023-09-30T07:12:54;14.90;;;5.38;;
82876;SDS011;72655;47.596;7.658;2023-09-30T07:15:21;18.10;;;5.38;;
82876;SDS011;72655;47.596;7.658;2023-09-30T07:17:48;17.80;;;5.75;;
82876;SDS011;72655;47.596;7.658;2023-09-30T07:20:15;12.57;;;5.20;;
82876;SDS011;72655;47.596;7.658;2023-09-30T07:22:42;13.60;;;5.30;;
82876;SDS011;72655;47.596;7.658;2023-09-30T07:25:11;14.57;;;6.00;;
82876;SDS011;72655;47.596;7.658;2023-09-30T07:27:39;13.75;;;5.75;;
82876;SDS011;72655;47.596;7.658;2023-09-30T07:30:07;11.90;;;4.65;;
82876;SDS011;72655;47.596;7.658;2023-09-30T07:32:34;13.85;;;5.35;;
82876;SDS011;72655;47.596;7.658;2023-09-30T07:35:01;14.75;;;5.35;;
82876;SDS011;72655;47.596;7.658;2023-09-30T07:37:29;12.27;;;4.32;;
82876;SDS011;72655;47.596;7.658;2023-09-30T07:39:56;11.13;;;4.65;;
82876;SDS011;72655;47.596;7.658;2023-09-30T07:42:24;8.70;;;4.10;;
82876;SDS011;72655;47.596;7.658;2023-09-30T07:44:51;13.75;;;4.30;;
82876;SDS011;72655;47.596;7.658;2023-09-30T07:47:19;14.10;;;5.20;;
82876;SDS011;72655;47.596;7.658;2023-09-30T07:49:46;13.73;;;4.93;;
82876;SDS011;72655;47.596;7.658;2023-09-30T07:52:13;13.65;;;4.32;;
82876;SDS011;72655;47.596;7.658;2023-09-30T07:54:40;9.60;;;4.10;;
82876;SDS011;72655;47.596;7.658;2023-09-30T07:57:08;12.35;;;4.13;;
82876;SDS011;72655;47.596;7.658;2023-09-30T07:59:36;8.88;;;3.33;;
82876;SDS011;72655;47.596;7.658;2023-09-30T08:02:03;9.15;;;3.47;;
82876;SDS011;72655;47.596;7.658;2023-09-30T08:04:31;9.55;;;3.42;;
82876;SDS011;72655;47.596;7.658;2023-09-30T08:06:58;7.03;;;3.28;;
82876;SDS011;72655;47.596;7.658;2023-09-30T08:09:25;9.23;;;3.72;;
82876;SDS011;72655;47.596;7.658;2023-09-30T08:11:53;10.23;;;4.05;;
82876;SDS011;72655;47.596;7.658;2023-09-30T08:14:21;8.48;;;4.03;;
82876;SDS011;72655;47.596;7.658;2023-09-30T08:16:49;11.95;;;3.33;;
82876;SDS011;72655;47.596;7.658;2023-09-30T08:19:16;7.55;;;3.17;;
82876;SDS011;72655;47.596;7.658;2023-09-30T08:21:45;18.38;;;4.22;;
82876;SDS011;72655;47.596;7.658;2023-09-30T08:24:14;12.60;;;3.85;;
82876;SDS011;72655;47.596;7.658;2023-09-30T08:26:44;9.45;;;3.88;;
82876;SDS011;72655;47.596;7.658;2023-09-30T08:29:11;13.07;;;4.05;;
82876;SDS011;72655;47.596;7.658;2023-09-30T08:31:38;8.40;;;3.42;;
82876;SDS011;72655;47.596;7.658;2023-09-30T08:34:06;9.77;;;3.58;;
82876;SDS011;72655;47.596;7.658;2023-09-30T08:36:33;14.88;;;3.35;;
82876;SDS011;72655;47.596;7.658;2023-09-30T08:39:00;10.70;;;3.50;;
82876;SDS011;72655;47.596;7.658;2023-09-30T08:41:30;7.15;;;3.17;;
82876;SDS011;72655;47.596;7.658;2023-09-30T08:43:59;9.15;;;3.45;;
82876;SDS011;72655;47.596;7.658;2023-09-30T08:46:28;12.48;;;3.97;;
82876;SDS011;72655;47.596;7.658;2023-09-30T08:48:58;6.80;;;2.92;;
82876;SDS011;72655;47.596;7.658;2023-09-30T08:51:29;9.07;;;3.40;;
82876;SDS011;72655;47.596;7.658;2023-09-30T08:53:57;8.07;;;3.42;;
82876;SDS011;72655;47.596;7.658;2023-09-30T08:56:25;6.65;;;2.67;;
82876;SDS011;72655;47.596;7.658;2023-09-30T08:58:55;11.80;;;3.38;;
82876;SDS011;72655;47.596;7.658;2023-09-30T09:01:24;9.43;;;2.83;;
82876;SDS011;72655;47.596;7.658;2023-09-30T09:03:51;8.52;;;3.15;;
82876;SDS011;72655;47.596;7.658;2023-09-30T09:06:19;8.02;;;3.05;;
82876;SDS011;72655;47.596;7.658;2023-09-30T09:08:48;11.07;;;2.90;;
82876;SDS011;72655;47.596;7.658;2023-09-30T09:11:15;12.63;;;3.67;;
82876;SDS011;72655;47.596;7.658;2023-09-30T09:13:45;9.35;;;3.50;;
82876;SDS011;72655;47.596;7.658;2023-09-30T09:16:15;7.53;;;2.95;;
82876;SDS011;72655;47.596;7.658;2023-09-30T09:18:44;9.02;;;2.83;;
82876;SDS011;72655;47.596;7.658;2023-09-30T09:21:13;8.55;;;3.35;;
82876;SDS011;72655;47.596;7.658;2023-09-30T09:23:41;9.38;;;3.17;;
82876;SDS011;72655;47.596;7.658;2023-09-30T09:26:11;8.55;;;3.05;;
82876;SDS011;72655;47.596;7.658;2023-09-30T09:28:39;9.93;;;3.78;;
82876;SDS011;72655;47.596;7.658;2023-09-30T09:31:19;12.93;;;4.15;;
82876;SDS011;72655;47.596;7.658;2023-09-30T09:33:46;9.63;;;4.10;;
82876;SDS011;72655;47.596;7.658;2023-09-30T09:36:14;10.32;;;3.65;;
82876;SDS011;72655;47.596;7.658;2023-09-30T09:38:45;9.77;;;3.53;;
82876;SDS011;72655;47.596;7.658;2023-09-30T09:41:16;9.13;;;3.83;;
82876;SDS011;72655;47.596;7.658;2023-09-30T09:43:43;8.73;;;3.47;;
82876;SDS011;72655;47.596;7.658;2023-09-30T09:46:11;9.95;;;4.18;;
82876;SDS011;72655;47.596;7.658;2023-09-30T09:48:39;9.35;;;3.67;;
82876;SDS011;72655;47.596;7.658;2023-09-30T09:51:06;11.90;;;4.10;;
82876;SDS011;72655;47.596;7.658;2023-09-30T09:53:38;10.95;;;3.60;;
82876;SDS011;72655;47.596;7.658;2023-09-30T09:56:07;7.72;;;3.22;;
82876;SDS011;72655;47.596;7.658;2023-09-30T09:58:38;14.52;;;5.18;;
82876;SDS011;72655;47.596;7.658;2023-09-30T10:01:07;11.32;;;4.00;;
82876;SDS011;72655;47.596;7.658;2023-09-30T10:03:36;11.70;;;3.90;;
82876;SDS011;72655;47.596;7.658;2023-09-30T10:06:04;11.68;;;3.38;;
82876;SDS011;72655;47.596;7.658;2023-09-30T10:08:32;7.45;;;3.03;;
82876;SDS011;72655;47.596;7.658;2023-09-30T10:11:03;8.48;;;4.18;;
82876;SDS011;72655;47.596;7.658;2023-09-30T10:19:16;10.05;;;3.78;;
82876;SDS011;72655;47.596;7.658;2023-09-30T10:24:52;8.70;;;3.10;;
82876;SDS011;72655;47.596;7.658;2023-09-30T10:27:29;8.68;;;3.08;;
82876;SDS011;72655;47.596;7.658;2023-09-30T10:30:07;11.85;;;4.30;;
82876;SDS011;72655;47.596;7.658;2023-09-30T10:35:44;7.10;;;2.75;;
82876;SDS011;72655;47.596;7.658;2023-09-30T10:41:06;10.70;;;3.83;;
82876;SDS011;72655;47.596;7.658;2023-09-30T10:43:34;5.63;;;2.55;;
82876;SDS011;72655;47.596;7.658;2023-09-30T10:46:03;9.43;;;2.65;;
82876;SDS011;72655;47.596;7.658;2023-09-30T10:48:36;9.10;;;3.13;;
82876;SDS011;72655;47.596;7.658;2023-09-30T10:51:12;6.85;;;3.08;;
82876;SDS011;72655;47.596;7.658;2023-09-30T10:53:44;10.75;;;3.75;;
82876;SDS011;72655;47.596;7.658;2023-09-30T10:56:13;12.75;;;4.15;;
82876;SDS011;72655;47.596;7.658;2023-09-30T10:58:41;10.10;;;3.03;;
82876;SDS011;72655;47.596;7.658;2023-09-30T11:01:10;8.20;;;3.42;;
82876;SDS011;72655;47.596;7.658;2023-09-30T11:03:38;10.63;;;3.72;;
82876;SDS011;72655;47.596;7.658;2023-09-30T11:06:05;8.43;;;3.33;;
82876;SDS011;72655;47.596;7.658;2023-09-30T11:08:32;6.93;;;3.00;;
82876;SDS011;72655;47.596;7.658;2023-09-30T11:11:00;12.15;;;2.92;;
82876;SDS011;72655;47.596;7.658;2023-09-30T11:13:31;6.40;;;2.87;;
82876;SDS011;72655;47.596;7.658;2023-09-30T11:16:00;7.53;;;3.15;;
82876;SDS011;72655;47.596;7.658;2023-09-30T11:18:31;7.47;;;3.05;;
82876;SDS011;72655;47.596;7.658;2023-09-30T11:21:08;16.92;;;3.28;;
82876;SDS011;72655;47.596;7.658;2023-09-30T11:23:38;9.30;;;3.85;;
82876;SDS011;72655;47.596;7.658;2023-09-30T11:26:06;8.13;;;3.33;;
82876;SDS011;72655;47.596;7.658;2023-09-30T11:28:37;9.52;;;3.00;;
82876;SDS011;72655;47.596;7.658;2023-09-30T11:31:07;8.50;;;3.40;;
82876;SDS011;72655;47.596;7.658;2023-09-30T11:33:50;9.85;;;3.90;;
82876;SDS011;72655;47.596;7.658;2023-09-30T11:36:18;17.10;;;4.45;;
82876;SDS011;72655;47.596;7.658;2023-09-30T11:38:47;8.95;;;4.68;;
82876;SDS011;72655;47.596;7.658;2023-09-30T11:41:15;8.65;;;3.55;;
82876;SDS011;72655;47.596;7.658;2023-09-30T11:43:58;6.53;;;3.20;;
82876;SDS011;72655;47.596;7.658;2023-09-30T11:46:26;9.23;;;3.75;;
82876;SDS011;72655;47.596;7.658;2023-09-30T11:49:00;8.95;;;3.25;;
82876;SDS011;72655;47.596;7.658;2023-09-30T11:51:42;7.00;;;3.13;;
82876;SDS011;72655;47.596;7.658;2023-09-30T11:54:11;8.98;;;3.40;;
82876;SDS011;72655;47.596;7.658;2023-09-30T11:56:40;7.90;;;3.10;;
82876;SDS011;72655;47.596;7.658;2023-09-30T11:59:07;11.40;;;4.10;;
82876;SDS011;72655;47.596;7.658;2023-09-30T12:01:35;12.30;;;3.72;;
82876;SDS011;72655;47.596;7.658;2023-09-30T12:04:04;13.00;;;4.25;;
82876;SDS011;72655;47.596;7.658;2023-09-30T12:06:31;9.10;;;3.50;;
82876;SDS011;72655;47.596;7.658;2023-09-30T12:08:59;7.95;;;3.60;;
82876;SDS011;72655;47.596;7.658;2023-09-30T12:11:28;11.55;;;3.90;;
82876;SDS011;72655;47.596;7.658;2023-09-30T12:13:54;9.80;;;3.58;;
82876;SDS011;72655;47.596;7.658;2023-09-30T12:16:21;9.65;;;3.60;;
82876;SDS011;72655;47.596;7.658;2023-09-30T12:18:49;10.20;;;3.63;;
82876;SDS011;72655;47.596;7.658;2023-09-30T12:21:17;8.52;;;3.38;;
82876;SDS011;72655;47.596;7.658;2023-09-30T12:23:45;10.10;;;3.78;;
82876;SDS011;72655;47.596;7.658;2023-09-30T12:26:13;10.20;;;4.18;;
82876;SDS011;72655;47.596;7.658;2023-09-30T12:28:42;7.78;;;3.13;;
82876;SDS011;72655;47.596;7.658;2023-09-30T12:31:09;7.93;;;3.15;;
82876;SDS011;72655;47.596;7.658;2023-09-30T12:33:37;5.38;;;3.03;;
82876;SDS011;72655;47.596;7.658;2023-09-30T12:36:04;12.18;;;3.88;;
82876;SDS011;72655;47.596;7.658;2023-09-30T12:38:33;7.43;;;3.08;;
82876;SDS011;72655;47.596;7.658;2023-09-30T12:41:01;9.13;;;3.85;;
82876;SDS011;72655;47.596;7.658;2023-09-30T12:43:28;8.70;;;3.53;;
82876;SDS011;72655;47.596;7.658;2023-09-30T12:45:55;10.38;;;3.35;;
82876;SDS011;72655;47.596;7.658;2023-09-30T12:48:22;5.80;;;3.17;;
82876;SDS011;72655;47.596;7.658;2023-09-30T12:50:49;10.07;;;4.05;;
82876;SDS011;72655;47.596;7.658;2023-09-30T12:53:16;8.32;;;3.38;;
82876;SDS011;72655;47.596;7.658;2023-09-30T12:55:45;9.80;;;3.28;;
82876;SDS011;72655;47.596;7.658;2023-09-30T12:58:12;11.07;;;3.97;;
82876;SDS011;72655;47.596;7.658;2023-09-30T13:00:38;8.27;;;3.97;;
82876;SDS011;72655;47.596;7.658;2023-09-30T13:03:05;8.52;;;3.85;;
82876;SDS011;72655;47.596;7.658;2023-09-30T13:05:33;9.10;;;4.40;;
82876;SDS011;72655;47.596;7.658;2023-09-30T13:08:00;8.18;;;3.88;;
82876;SDS011;72655;47.596;7.658;2023-09-30T13:10:27;10.50;;;4.25;;
82876;SDS011;72655;47.596;7.658;2023-09-30T13:12:56;9.75;;;5.05;;
82876;SDS011;72655;47.596;7.658;2023-09-30T13:15:23;11.40;;;4.15;;
82876;SDS011;72655;47.596;7.658;2023-09-30T13:17:51;10.77;;;4.32;;
82876;SDS011;72655;47.596;7.658;2023-09-30T13:20:18;9.10;;;3.75;;
82876;SDS011;72655;47.596;7.658;2023-09-30T13:22:45;9.30;;;3.75;;
82876;SDS011;72655;47.596;7.658;2023-09-30T13:25:12;8.30;;;3.95;;
82876;SDS011;72655;47.596;7.658;2023-09-30T13:27:40;11.63;;;4.50;;
82876;SDS011;72655;47.596;7.658;2023-09-30T13:30:09;7.10;;;4.25;;
82876;SDS011;72655;47.596;7.658;2023-09-30T13:32:37;9.38;;;4.07;;
82876;SDS011;72655;47.596;7.658;2023-09-30T13:35:04;11.23;;;4.43;;
82876;SDS011;72655;47.596;7.658;2023-09-30T13:37:32;9.15;;;3.95;;
82876;SDS011;72655;47.596;7.658;2023-09-30T13:40:00;10.45;;;4.53;;
82876;SDS011;72655;47.596;7.658;2023-09-30T13:42:28;9.60;;;4.68;;
82876;SDS011;72655;47.596;7.658;2023-09-30T13:44:55;12.35;;;4.65;;
82876;SDS011;72655;47.596;7.658;2023-09-30T13:47:25;10.32;;;4.22;;
82876;SDS011;72655;47.596;7.658;2023-09-30T13:49:52;8.15;;;4.25;;
82876;SDS011;72655;47.596;7.658;2023-09-30T13:52:20;12.45;;;4.72;;
82876;SDS011;72655;47.596;7.658;2023-09-30T13:54:48;10.93;;;4.57;;
82876;SDS011;72655;47.596;7.658;2023-09-30T13:57:16;7.93;;;4.40;;
82876;SDS011;72655;47.596;7.658;2023-09-30T13:59:43;9.55;;;4.40;;
82876;SDS011;72655;47.596;7.658;2023-09-30T14:02:09;9.82;;;4.35;;
82876;SDS011;72655;47.596;7.658;2023-09-30T14:04:38;10.23;;;3.85;;
82876;SDS011;72655;47.596;7.658;2023-09-30T14:07:05;9.25;;;4.35;;
82876;SDS011;72655;47.596;7.658;2023-09-30T14:09:33;11.77;;;4.00;;
82876;SDS011;72655;47.596;7.658;2023-09-30T14:12:00;8.20;;;3.70;;
82876;SDS011;72655;47.596;7.658;2023-09-30T14:14:30;7.97;;;4.13;;
82876;SDS011;72655;47.596;7.658;2023-09-30T14:16:57;9.07;;;4.82;;
82876;SDS011;72655;47.596;7.658;2023-09-30T14:19:24;12.32;;;4.13;;
82876;SDS011;72655;47.596;7.658;2023-09-30T14:21:54;9.60;;;4.47;;
82876;SDS011;72655;47.596;7.658;2023-09-30T14:24:21;9.18;;;4.55;;
82876;SDS011;72655;47.596;7.658;2023-09-30T14:26:48;7.97;;;4.05;;
82876;SDS011;72655;47.596;7.658;2023-09-30T14:29:15;9.93;;;4.45;;
82876;SDS011;72655;47.596;7.658;2023-09-30T14:31:42;9.65;;;4.38;;
82876;SDS011;72655;47.596;7.658;2023-09-30T14:34:09;10.13;;;4.82;;
82876;SDS011;72655;47.596;7.658;2023-09-30T14:36:36;9.75;;;4.47;;
82876;SDS011;72655;47.596;7.658;2023-09-30T14:39:04;11.45;;;4.80;;
82876;SDS011;72655;47.596;7.658;2023-09-30T14:41:31;9.93;;;4.20;;
82876;SDS011;72655;47.596;7.658;2023-09-30T14:44:00;8.38;;;4.32;;
82876;SDS011;72655;47.596;7.658;2023-09-30T14:46:28;7.18;;;3.80;;
82876;SDS011;72655;47.596;7.658;2023-09-30T14:48:55;8.35;;;4.85;;
82876;SDS011;72655;47.596;7.658;2023-09-30T14:51:23;12.57;;;5.10;;
82876;SDS011;72655;47.596;7.658;2023-09-30T14:53:50;10.23;;;5.03;;
82876;SDS011;72655;47.596;7.658;2023-09-30T14:56:18;11.77;;;4.68;;
82876;SDS011;72655;47.596;7.658;2023-09-30T14:58:45;9.77;;;4.68;;
82876;SDS011;72655;47.596;7.658;2023-09-30T15:01:12;9.75;;;5.05;;
82876;SDS011;72655;47.596;7.658;2023-09-30T15:03:39;9.15;;;4.82;;
82876;SDS011;72655;47.596;7.658;2023-09-30T15:06:06;10.95;;;5.03;;
82876;SDS011;72655;47.596;7.658;2023-09-30T15:08:34;11.38;;;4.97;;
82876;SDS011;72655;47.596;7.658;2023-09-30T15:11:01;9.85;;;4.70;;
82876;SDS011;72655;47.596;7.658;2023-09-30T15:13:30;11.25;;;4.85;;
82876;SDS011;72655;47.596;7.658;2023-09-30T15:15:58;12.07;;;5.63;;
82876;SDS011;72655;47.596;7.658;2023-09-30T15:18:25;14.32;;;6.15;;
82876;SDS011;72655;47.596;7.658;2023-09-30T15:20:52;9.73;;;4.72;;
82876;SDS011;72655;47.596;7.658;2023-09-30T15:23:19;13.45;;;6.00;;
82876;SDS011;72655;47.596;7.658;2023-09-30T15:25:46;10.07;;;4.97;;
82876;SDS011;72655;47.596;7.658;2023-09-30T15:28:13;11.52;;;4.70;;
82876;SDS011;72655;47.596;7.658;2023-09-30T15:30:41;10.77;;;4.85;;
82876;SDS011;72655;47.596;7.658;2023-09-30T15:33:08;13.43;;;5.53;;
82876;SDS011;72655;47.596;7.658;2023-09-30T15:35:35;10.93;;;6.10;;
82876;SDS011;72655;47.596;7.658;2023-09-30T15:38:03;10.75;;;5.57;;
82876;SDS011;72655;47.596;7.658;2023-09-30T15:40:31;11.38;;;5.20;;
82876;SDS011;72655;47.596;7.658;2023-09-30T15:43:02;12.95;;;6.43;;
82876;SDS011;72655;47.596;7.658;2023-09-30T15:45:29;15.73;;;6.45;;
82876;SDS011;72655;47.596;7.658;2023-09-30T15:48:00;9.30;;;5.25;;
82876;SDS011;72655;47.596;7.658;2023-09-30T15:50:27;11.48;;;5.43;;
82876;SDS011;72655;47.596;7.658;2023-09-30T15:52:54;13.30;;;5.40;;
82876;SDS011;72655;47.596;7.658;2023-09-30T15:55:21;10.77;;;5.22;;
82876;SDS011;72655;47.596;7.658;2023-09-30T15:57:49;11.93;;;4.95;;
82876;SDS011;72655;47.596;7.658;2023-09-30T16:00:16;10.43;;;4.45;;
82876;SDS011;72655;47.596;7.658;2023-09-30T16:02:43;13.52;;;6.00;;
82876;SDS011;72655;47.596;7.658;2023-09-30T16:05:12;10.88;;;5.50;;
82876;SDS011;72655;47.596;7.658;2023-09-30T16:07:39;11.88;;;5.05;;
82876;SDS011;72655;47.596;7.658;2023-09-30T16:10:07;14.43;;;5.88;;
82876;SDS011;72655;47.596;7.658;2023-09-30T16:12:35;13.00;;;5.57;;
82876;SDS011;72655;47.596;7.658;2023-09-30T16:15:04;13.02;;;5.18;;
82876;SDS011;72655;47.596;7.658;2023-09-30T16:17:34;13.90;;;6.15;;
82876;SDS011;72655;47.596;7.658;2023-09-30T16:20:01;13.45;;;6.05;;
82876;SDS011;72655;47.596;7.658;2023-09-30T16:22:30;13.70;;;5.50;;
82876;SDS011;72655;47.596;7.658;2023-09-30T16:24:58;11.32;;;5.15;;
82876;SDS011;72655;47.596;7.658;2023-09-30T16:27:26;10.75;;;5.80;;
82876;SDS011;72655;47.596;7.658;2023-09-30T16:29:53;12.32;;;5.88;;
82876;SDS011;72655;47.596;7.658;2023-09-30T16:32:21;15.27;;;5.90;;
82876;SDS011;72655;47.596;7.658;2023-09-30T16:34:48;15.50;;;7.38;;
82876;SDS011;72655;47.596;7.658;2023-09-30T16:37:15;13.77;;;5.93;;
82876;SDS011;72655;47.596;7.658;2023-09-30T16:39:43;15.27;;;6.10;;
82876;SDS011;72655;47.596;7.658;2023-09-30T16:42:10;13.50;;;5.88;;
82876;SDS011;72655;47.596;7.658;2023-09-30T16:44:37;15.05;;;6.60;;
82876;SDS011;72655;47.596;7.658;2023-09-30T16:47:04;13.43;;;5.78;;
82876;SDS011;72655;47.596;7.658;2023-09-30T16:49:32;15.20;;;5.55;;
82876;SDS011;72655;47.596;7.658;2023-09-30T16:51:59;15.02;;;5.85;;
82876;SDS011;72655;47.596;7.658;2023-09-30T16:54:27;13.43;;;6.70;;
82876;SDS011;72655;47.596;7.658;2023-09-30T16:56:55;12.82;;;5.78;;
82876;SDS011;72655;47.596;7.658;2023-09-30T16:59:23;13.38;;;5.75;;
82876;SDS011;72655;47.596;7.658;2023-09-30T17:01:50;14.73;;;5.20;;
82876;SDS011;72655;47.596;7.658;2023-09-30T17:04:17;12.63;;;6.00;;
82876;SDS011;72655;47.596;7.658;2023-09-30T17:06:44;13.00;;;6.10;;
82876;SDS011;72655;47.596;7.658;2023-09-30T17:09:12;12.25;;;5.90;;
82876;SDS011;72655;47.596;7.658;2023-09-30T17:11:39;14.70;;;6.50;;
82876;SDS011;72655;47.596;7.658;2023-09-30T17:14:07;16.88;;;6.10;;
82876;SDS011;72655;47.596;7.658;2023-09-30T17:16:34;12.27;;;5.28;;
82876;SDS011;72655;47.596;7.658;2023-09-30T17:19:01;13.48;;;5.60;;
82876;SDS011;72655;47.596;7.658;2023-09-30T17:21:28;12.43;;;5.30;;
82876;SDS011;72655;47.596;7.658;2023-09-30T17:23:55;11.43;;;5.65;;
82876;SDS011;72655;47.596;7.658;2023-09-30T17:26:22;12.93;;;5.43;;
82876;SDS011;72655;47.596;7.658;2023-09-30T17:28:49;16.23;;;6.53;;
82876;SDS011;72655;47.596;7.658;2023-09-30T17:31:17;14.30;;;5.45;;
82876;SDS011;72655;47.596;7.658;2023-09-30T17:33:44;13.18;;;5.68;;
82876;SDS011;72655;47.596;7.658;2023-09-30T17:36:11;15.90;;;6.63;;
82876;SDS011;72655;47.596;7.658;2023-09-30T17:38:38;12.25;;;5.60;;
82876;SDS011;72655;47.596;7.658;2023-09-30T17:41:05;16.05;;;6.85;;
82876;SDS011;72655;47.596;7.658;2023-09-30T17:43:33;13.50;;;5.97;;
82876;SDS011;72655;47.596;7.658;2023-09-30T17:46:06;13.38;;;6.97;;
82876;SDS011;72655;47.596;7.658;2023-09-30T17:48:36;17.67;;;7.70;;
82876;SDS011;72655;47.596;7.658;2023-09-30T17:51:04;15.52;;;7.55;;
82876;SDS011;72655;47.596;7.658;2023-09-30T17:53:32;19.23;;;8.63;;
82876;SDS011;72655;47.596;7.658;2023-09-30T17:55:59;17.25;;;8.02;;
82876;SDS011;72655;47.596;7.658;2023-09-30T17:58:26;20.92;;;9.90;;
82876;SDS011;72655;47.596;7.658;2023-09-30T18:00:54;17.10;;;8.07;;
82876;SDS011;72655;47.596;7.658;2023-09-30T18:03:21;19.98;;;8.50;;
82876;SDS011;72655;47.596;7.658;2023-09-30T18:05:49;20.85;;;9.05;;
82876;SDS011;72655;47.596;7.658;2023-09-30T18:08:16;14.77;;;7.63;;
82876;SDS011;72655;47.596;7.658;2023-09-30T18:10:43;20.30;;;8.60;;
82876;SDS011;72655;47.596;7.658;2023-09-30T18:13:11;24.35;;;11.30;;
82876;SDS011;72655;47.596;7.658;2023-09-30T18:15:38;28.33;;;15.30;;
82876;SDS011;72655;47.596;7.658;2023-09-30T18:18:05;28.77;;;12.43;;
82876;SDS011;72655;47.596;7.658;2023-09-30T18:20:32;29.00;;;12.27;;
82876;SDS011;72655;47.596;7.658;2023-09-30T18:23:01;28.55;;;11.60;;
82876;SDS011;72655;47.596;7.658;2023-09-30T18:25:28;30.48;;;11.77;;
82876;SDS011;72655;47.596;7.658;2023-09-30T18:27:59;29.50;;;11.75;;
82876;SDS011;72655;47.596;7.658;2023-09-30T18:30:27;24.80;;;10.13;;
82876;SDS011;72655;47.596;7.658;2023-09-30T18:32:55;29.05;;;11.32;;
82876;SDS011;72655;47.596;7.658;2023-09-30T18:35:23;27.73;;;11.90;;
82876;SDS011;72655;47.596;7.658;2023-09-30T18:37:50;25.17;;;10.20;;
82876;SDS011;72655;47.596;7.658;2023-09-30T18:40:19;19.85;;;9.02;;
82876;SDS011;72655;47.596;7.658;2023-09-30T18:42:46;23.77;;;8.80;;
